createdAt,value
2018-05-18T00:01:07.047Z,40.23
2018-05-18T00:03:33.370Z,43.43
2018-05-18T00:05:59.734Z,32.87
2018-05-18T00:08:26.050Z,39.50
2018-05-18T00:10:52.369Z,52.03
2018-05-18T00:13:18.705Z,42.00
2018-05-18T00:15:45.047Z,31.80
2018-05-18T00:18:11.416Z,39.50
2018-05-18T00:20:45.591Z,34.43
2018-05-18T00:23:11.879Z,45.17
2018-05-18T00:25:38.208Z,34.87
2018-05-18T00:28:04.538Z,39.83
2018-05-18T00:30:30.904Z,34.10
2018-05-18T00:32:57.197Z,40.10
2018-05-18T00:35:23.532Z,34.23
2018-05-18T00:37:49.831Z,38.03
2018-05-18T00:40:16.121Z,45.90
2018-05-18T00:42:42.418Z,49.50
2018-05-18T00:45:08.772Z,38.20
2018-05-18T00:47:35.117Z,30.60
2018-05-18T00:50:01.417Z,30.00
2018-05-18T00:52:27.746Z,41.23
2018-05-18T00:54:54.773Z,31.73
2018-05-18T00:57:21.875Z,46.23
2018-05-18T00:59:48.211Z,34.90
2018-05-18T01:02:14.537Z,39.67
2018-05-18T01:04:40.943Z,39.93
2018-05-18T01:07:07.277Z,35.70
2018-05-18T01:09:33.598Z,38.97
2018-05-18T01:12:00.690Z,42.30
2018-05-18T01:14:27.031Z,36.60
2018-05-18T01:16:53.391Z,39.20
2018-05-18T01:19:19.777Z,32.83
2018-05-18T01:21:46.102Z,43.40
2018-05-18T01:24:12.489Z,46.53
2018-05-18T01:26:39.587Z,44.83
2018-05-18T01:29:05.954Z,35.13
2018-05-18T01:31:32.279Z,40.57
2018-05-18T01:33:58.606Z,50.60
2018-05-18T01:36:24.941Z,42.17
2018-05-18T01:38:51.245Z,48.47
2018-05-18T01:41:17.520Z,38.27
2018-05-18T01:43:44.622Z,51.23
2018-05-18T01:46:10.908Z,39.00
2018-05-18T01:48:38.002Z,36.70
2018-05-18T01:51:04.341Z,46.27
2018-05-18T01:53:30.659Z,39.97
2018-05-18T01:55:57.014Z,49.53
2018-05-18T01:58:23.390Z,49.37
2018-05-18T02:00:50.474Z,47.17
2018-05-18T02:03:16.830Z,43.33
2018-05-18T02:05:43.170Z,61.37
2018-05-18T02:08:09.474Z,36.23
2018-05-18T02:10:36.249Z,42.10
2018-05-18T02:13:02.615Z,55.57
2018-05-18T02:15:28.980Z,48.50
2018-05-18T02:17:55.299Z,39.50
2018-05-18T02:20:21.650Z,42.37
2018-05-18T02:22:47.992Z,41.53
2018-05-18T02:25:14.330Z,52.47
2018-05-18T02:27:40.670Z,41.03
2018-05-18T02:30:07.000Z,48.80
2018-05-18T02:32:34.088Z,35.33
2018-05-18T02:35:00.415Z,46.83
2018-05-18T02:37:26.743Z,49.87
2018-05-18T02:39:53.029Z,54.87
2018-05-18T02:42:19.371Z,46.63
2018-05-18T02:44:45.746Z,43.30
2018-05-18T02:47:12.054Z,37.43
2018-05-18T02:49:39.185Z,45.40
2018-05-18T02:52:05.490Z,51.13
2018-05-18T02:54:31.919Z,51.77
2018-05-18T02:56:58.276Z,54.23
2018-05-18T02:59:24.621Z,59.00
2018-05-18T03:01:51.337Z,42.97
2018-05-18T03:04:17.677Z,56.17
2018-05-18T03:06:44.057Z,44.70
2018-05-18T03:09:10.563Z,54.03
2018-05-18T03:11:36.837Z,53.87
2018-05-18T03:14:03.509Z,65.40
2018-05-18T03:16:29.840Z,54.47
2018-05-18T03:18:56.274Z,67.60
2018-05-18T03:21:22.661Z,48.27
2018-05-18T03:23:48.995Z,49.83
2018-05-18T03:26:15.383Z,57.83
2018-05-18T03:28:41.717Z,57.50
2018-05-18T03:31:08.058Z,56.57
2018-05-18T03:33:34.348Z,55.33
2018-05-18T03:36:00.660Z,53.37
2018-05-18T03:38:27.045Z,57.03
2018-05-18T03:40:53.406Z,55.90
2018-05-18T03:43:19.745Z,67.80
2018-05-18T03:45:46.047Z,66.43
2018-05-18T03:48:13.090Z,47.13
2018-05-18T03:50:39.354Z,57.93
2018-05-18T03:53:05.643Z,51.93
2018-05-18T03:55:32.014Z,57.40
2018-05-18T03:57:58.333Z,55.87
2018-05-18T04:00:25.387Z,50.43
2018-05-18T04:06:25.235Z,58.80
2018-05-18T04:08:52.597Z,50.20
2018-05-18T04:11:19.052Z,59.20
2018-05-18T04:13:45.333Z,53.53
2018-05-18T04:16:12.436Z,52.53
2018-05-18T04:18:38.827Z,51.70
2018-05-18T04:21:05.165Z,50.30
2018-05-18T04:23:31.529Z,49.40
2018-05-18T04:25:58.638Z,46.47
2018-05-18T04:28:24.991Z,50.47
2018-05-18T04:30:51.307Z,51.90
2018-05-18T04:33:17.636Z,66.77
2018-05-18T04:35:43.938Z,47.90
2018-05-18T04:38:11.002Z,42.27
2018-05-18T04:40:38.096Z,55.33
2018-05-18T04:43:04.361Z,46.53
2018-05-18T04:45:30.664Z,44.97
2018-05-18T04:47:57.115Z,50.40
2018-05-18T04:50:23.469Z,53.70
2018-05-18T04:52:50.516Z,57.80
2018-05-18T04:55:17.619Z,54.63
2018-05-18T04:57:43.986Z,43.60
2018-05-18T05:00:10.318Z,46.20
2018-05-18T05:02:37.437Z,44.77
2018-05-18T05:05:03.876Z,43.80
2018-05-18T05:07:30.259Z,48.43
2018-05-18T05:09:57.330Z,36.10
2018-05-18T05:12:23.687Z,47.90
2018-05-18T05:14:50.013Z,56.17
2018-05-18T05:17:16.336Z,51.10
2018-05-18T05:19:42.646Z,43.00
2018-05-18T05:22:09.083Z,46.77
2018-05-18T05:24:35.427Z,38.53
2018-05-18T05:27:01.821Z,44.90
2018-05-18T05:29:28.879Z,38.73
2018-05-18T05:31:56.011Z,47.87
2018-05-18T05:34:23.061Z,49.30
2018-05-18T05:36:50.112Z,34.37
2018-05-18T05:39:17.256Z,42.47
2018-05-18T05:41:45.364Z,48.50
2018-05-18T05:44:11.686Z,52.33
2018-05-18T05:46:38.012Z,48.50
2018-05-18T05:49:05.100Z,35.57
2018-05-18T05:51:31.415Z,33.80
2018-05-18T05:53:57.691Z,47.70
2018-05-18T05:56:24.081Z,38.43
2018-05-18T05:58:50.403Z,37.20
2018-05-18T06:01:16.829Z,37.40
2018-05-18T06:03:43.142Z,29.00
2018-05-18T06:06:10.393Z,38.03
2018-05-18T06:08:37.436Z,40.27
2018-05-18T06:11:04.505Z,38.93
2018-05-18T06:13:30.838Z,41.73
2018-05-18T06:15:57.197Z,38.73
2018-05-18T06:18:23.523Z,40.83
2018-05-18T06:20:49.871Z,43.10
2018-05-18T06:23:16.201Z,48.73
2018-05-18T06:25:42.555Z,43.87
2018-05-18T06:28:08.918Z,47.73
2018-05-18T06:30:35.266Z,44.67
2018-05-18T06:33:01.647Z,48.67
2018-05-18T06:35:27.980Z,33.57
2018-05-18T06:37:54.318Z,32.40
2018-05-18T06:40:20.642Z,31.03
2018-05-18T06:42:46.955Z,29.23
2018-05-18T06:45:13.219Z,27.53
2018-05-18T06:47:40.286Z,27.87
2018-05-18T06:50:06.646Z,46.10
2018-05-18T06:52:33.045Z,38.90
2018-05-18T06:54:59.374Z,31.70
2018-05-18T06:57:26.454Z,37.20
2018-05-18T06:59:52.786Z,29.50
2018-05-18T07:02:19.110Z,36.13
2018-05-18T07:04:45.439Z,34.93
2018-05-18T07:07:11.763Z,33.63
2018-05-18T07:09:38.082Z,43.77
2018-05-18T07:12:04.439Z,42.97
2018-05-18T07:14:30.818Z,51.30
2018-05-18T07:16:57.155Z,34.30
2018-05-18T07:19:23.483Z,34.33
2018-05-18T07:21:50.546Z,40.10
2018-05-18T07:24:17.635Z,36.70
2018-05-18T07:26:43.917Z,36.13
2018-05-18T07:29:10.335Z,39.80
2018-05-18T07:31:36.677Z,29.80
2018-05-18T07:34:03.048Z,33.60
2018-05-18T07:36:29.386Z,29.93
2018-05-18T07:38:55.751Z,27.87
2018-05-18T07:41:22.017Z,29.03
2018-05-18T07:43:49.119Z,36.77
2018-05-18T07:46:16.125Z,33.73
2018-05-18T07:48:42.478Z,27.37
2018-05-18T07:51:08.947Z,34.60
2018-05-18T07:53:35.375Z,29.00
2018-05-18T07:56:01.634Z,30.57
2018-05-18T07:58:28.686Z,25.97
2018-05-18T08:00:55.763Z,26.70
2018-05-18T08:03:22.083Z,28.07
2018-05-18T08:05:49.136Z,24.17
2018-05-18T08:08:15.498Z,25.27
2018-05-18T08:10:41.810Z,19.60
2018-05-18T08:13:08.149Z,26.13
2018-05-18T08:15:34.452Z,21.60
2018-05-18T08:18:00.807Z,23.77
2018-05-18T08:20:27.139Z,27.90
2018-05-18T08:22:53.548Z,22.93
2018-05-18T08:25:20.603Z,24.67
2018-05-18T08:27:47.044Z,31.70
2018-05-18T08:30:13.290Z,28.50
2018-05-18T08:32:39.576Z,29.40
2018-05-18T08:35:06.624Z,26.50
2018-05-18T08:37:33.666Z,33.60
2018-05-18T08:40:00.012Z,33.60
2018-05-18T08:42:27.059Z,29.03
2018-05-18T08:44:54.075Z,29.27
2018-05-18T08:47:20.422Z,37.73
2018-05-18T08:49:47.460Z,33.47
2018-05-18T08:52:13.803Z,44.60
2018-05-18T08:54:40.840Z,50.63
2018-05-18T08:57:07.152Z,54.47
2018-05-18T08:59:33.517Z,47.77
2018-05-18T09:02:00.590Z,41.37
2018-05-18T09:04:26.925Z,49.73
2018-05-18T09:06:53.219Z,50.47
2018-05-18T09:09:19.587Z,46.63
2018-05-18T09:11:45.929Z,53.10
2018-05-18T09:14:12.209Z,53.10
2018-05-18T09:16:39.996Z,60.87
2018-05-18T09:19:06.342Z,45.03
2018-05-18T09:21:32.813Z,53.90
2018-05-18T09:23:59.164Z,58.47
2018-05-18T09:26:25.544Z,47.23
2018-05-18T09:28:51.921Z,54.40
2018-05-18T09:31:18.331Z,46.83
2018-05-18T09:33:44.739Z,58.67
2018-05-18T09:36:11.071Z,51.57
2018-05-18T09:38:37.424Z,60.90
2018-05-18T09:41:03.797Z,52.60
2018-05-18T09:43:30.159Z,57.23
2018-05-18T09:45:57.204Z,52.40
2018-05-18T09:48:24.231Z,52.00
2018-05-18T09:50:51.287Z,46.47
2018-05-18T09:53:18.355Z,43.67
2018-05-18T09:55:44.822Z,44.10
2018-05-18T09:58:11.175Z,38.83
2018-05-18T10:00:37.496Z,35.00
2018-05-18T10:03:03.834Z,40.27
2018-05-18T10:05:30.128Z,40.10
2018-05-18T10:07:56.473Z,50.90
2018-05-18T10:10:22.803Z,49.00
2018-05-18T10:12:49.149Z,48.77
2018-05-18T10:15:15.510Z,46.47
2018-05-18T10:17:41.844Z,48.73
2018-05-18T10:20:08.245Z,55.30
2018-05-18T10:22:34.565Z,51.03
2018-05-18T10:25:00.882Z,51.17
2018-05-18T10:27:27.196Z,48.63
2018-05-18T10:29:53.522Z,48.87
2018-05-18T10:32:20.593Z,65.67
2018-05-18T10:34:46.943Z,61.00
2018-05-18T10:37:13.315Z,49.70
2018-05-18T10:39:39.690Z,56.63
2018-05-18T10:42:06.041Z,50.40
2018-05-18T10:44:32.450Z,51.67
2018-05-18T10:46:58.750Z,46.90
2018-05-18T10:49:26.053Z,53.90
2018-05-18T10:51:52.306Z,57.27
2018-05-18T10:54:19.401Z,53.37
2018-05-18T10:56:46.386Z,51.93
2018-05-18T10:59:12.690Z,50.83
2018-05-18T11:01:39.121Z,51.97
2018-05-18T11:04:05.470Z,58.10
2018-05-18T11:06:31.846Z,50.40
2018-05-18T11:08:58.957Z,55.53
2018-05-18T11:11:25.285Z,59.63
2018-05-18T11:13:51.731Z,51.77
2018-05-18T11:16:18.087Z,46.23
2018-05-18T11:18:45.179Z,51.63
2018-05-18T11:21:11.513Z,46.23
2018-05-18T11:23:37.958Z,50.73
2018-05-18T11:26:04.299Z,48.10
2018-05-18T11:28:30.621Z,48.53
2018-05-18T11:30:56.960Z,43.93
2018-05-18T11:33:23.303Z,49.10
2018-05-18T11:35:49.733Z,48.70
2018-05-18T11:38:17.024Z,49.70
2018-05-18T11:40:44.135Z,50.00
2018-05-18T11:43:10.462Z,50.20
2018-05-18T11:45:36.838Z,45.13
2018-05-18T11:48:03.889Z,47.80
2018-05-18T11:50:31.084Z,43.97
2018-05-18T11:52:57.429Z,41.27
2018-05-18T11:55:23.826Z,47.03
2018-05-18T11:57:50.193Z,52.70
2018-05-18T12:00:16.577Z,50.90
2018-05-18T12:02:43.603Z,57.13
2018-05-18T12:05:09.973Z,49.30
2018-05-18T12:07:36.330Z,51.37
2018-05-18T12:10:02.783Z,50.40
2018-05-18T12:12:29.135Z,49.27
2018-05-18T12:14:55.450Z,45.03
2018-05-18T12:17:21.764Z,42.03
2018-05-18T12:19:48.219Z,43.20
2018-05-18T12:22:14.588Z,42.10
2018-05-18T12:24:41.641Z,42.47
2018-05-18T12:27:08.756Z,50.80
2018-05-18T12:29:35.143Z,41.17
2018-05-18T12:32:01.438Z,48.50
2018-05-18T12:34:27.825Z,51.23
2018-05-18T12:36:54.170Z,47.50
2018-05-18T12:39:20.560Z,42.40
2018-05-18T12:41:46.883Z,41.30
2018-05-18T12:44:13.212Z,42.20
2018-05-18T12:46:40.323Z,46.20
2018-05-18T12:49:06.699Z,46.07
2018-05-18T12:51:33.035Z,50.90
2018-05-18T12:53:59.406Z,37.90
2018-05-18T12:56:25.729Z,39.70
2018-05-18T12:58:52.021Z,45.40
2018-05-18T13:01:19.089Z,50.93
2018-05-18T13:03:45.435Z,43.00
2018-05-18T13:06:11.747Z,43.87
2018-05-18T13:08:38.089Z,45.53
2018-05-18T13:11:04.534Z,40.17
2018-05-18T13:13:30.881Z,45.37
2018-05-18T13:15:57.216Z,56.63
2018-05-18T13:18:23.526Z,47.60
2018-05-18T13:20:49.881Z,46.17
2018-05-18T13:23:16.209Z,52.93
2018-05-18T13:25:42.558Z,45.53
2018-05-18T13:28:08.902Z,50.20
2018-05-18T13:30:35.994Z,52.30
2018-05-18T13:33:02.492Z,47.50
2018-05-18T13:35:29.792Z,44.40
2018-05-18T13:37:56.169Z,45.00
2018-05-18T13:40:23.339Z,45.83
2018-05-18T13:42:49.701Z,51.17
2018-05-18T13:45:16.471Z,52.03
2018-05-18T13:47:42.789Z,47.53
2018-05-18T13:50:09.141Z,52.73
2018-05-18T13:52:36.460Z,50.67
2018-05-18T13:55:05.267Z,50.90
2018-05-18T13:57:31.718Z,45.40
2018-05-18T13:59:58.059Z,54.73
2018-05-18T14:02:24.441Z,47.60
2018-05-18T14:04:50.761Z,55.20
2018-05-18T14:07:17.169Z,50.73
2018-05-18T14:09:43.532Z,53.47
2018-05-18T14:12:09.899Z,40.20
2018-05-18T14:14:36.263Z,37.27
2018-05-18T14:17:03.336Z,40.00
2018-05-18T14:19:29.678Z,39.83
2018-05-18T14:21:56.041Z,40.43
2018-05-18T14:24:23.118Z,37.87
2018-05-18T14:26:50.207Z,41.37
2018-05-18T14:29:16.554Z,46.40
2018-05-18T14:31:42.888Z,52.97
2018-05-18T14:34:09.223Z,56.40
2018-05-18T14:36:35.556Z,54.73
2018-05-18T14:39:01.918Z,54.87
2018-05-18T14:41:29.040Z,49.70
2018-05-18T14:43:55.427Z,53.33
2018-05-18T14:46:21.806Z,56.57
2018-05-18T14:48:48.138Z,52.20
2018-05-18T14:51:14.644Z,51.00
2018-05-18T14:53:40.892Z,52.50
2018-05-18T14:56:08.073Z,51.30
2018-05-18T14:58:34.460Z,48.50
2018-05-18T15:01:01.516Z,49.03
2018-05-18T15:03:27.891Z,53.87
2018-05-18T15:05:54.251Z,47.33
2018-05-18T15:08:20.609Z,52.00
2018-05-18T15:10:46.994Z,56.53
2018-05-18T15:13:14.238Z,51.87
2018-05-18T15:15:40.580Z,51.20
2018-05-18T15:18:07.619Z,53.33
2018-05-18T15:20:33.956Z,54.80
2018-05-18T15:23:00.332Z,53.43
2018-05-18T15:25:26.723Z,49.20
2018-05-18T15:27:54.168Z,58.87
2018-05-18T15:30:20.608Z,57.20
2018-05-18T15:32:46.984Z,54.87
2018-05-18T15:35:13.334Z,45.77
2018-05-18T15:37:39.701Z,52.70
2018-05-18T15:40:05.981Z,48.53
2018-05-18T15:42:32.408Z,49.07
2018-05-18T15:44:58.830Z,40.40
2018-05-18T15:47:25.208Z,31.33
2018-05-18T15:49:51.597Z,36.57
2018-05-18T15:52:17.926Z,36.53
2018-05-18T15:54:44.260Z,32.00
2018-05-18T15:57:11.566Z,32.67
2018-05-18T15:59:37.974Z,38.67
2018-05-18T16:02:04.483Z,33.63
2018-05-18T16:04:31.008Z,32.00
2018-05-18T16:06:58.435Z,32.23
2018-05-18T16:09:25.753Z,35.30
2018-05-18T16:11:52.074Z,28.93
2018-05-18T16:14:18.521Z,30.23
2018-05-18T16:16:44.948Z,31.67
2018-05-18T16:19:12.683Z,34.20
2018-05-18T16:21:39.937Z,38.13
2018-05-18T16:24:06.488Z,31.33
2018-05-18T16:26:32.890Z,35.63
2018-05-18T16:28:59.387Z,32.97
2018-05-18T16:31:25.961Z,28.60
2018-05-18T16:33:53.202Z,37.27
2018-05-18T16:36:19.676Z,37.30
2018-05-18T16:38:46.166Z,32.57
2018-05-18T16:41:12.541Z,30.10
2018-05-18T16:43:39.012Z,30.00
2018-05-18T16:46:05.395Z,30.67
2018-05-18T16:48:32.579Z,32.07
2018-05-18T16:50:59.133Z,26.13
2018-05-18T16:53:25.532Z,29.27
2018-05-18T16:55:51.994Z,27.90
2018-05-18T16:58:19.115Z,31.37
2018-05-18T17:00:45.446Z,28.90
2018-05-18T17:03:11.924Z,31.53
2018-05-18T17:05:38.404Z,33.80
2018-05-18T17:08:04.880Z,27.33
2018-05-18T17:10:31.370Z,26.67
2018-05-18T17:12:57.832Z,30.83
2018-05-18T17:15:24.263Z,44.80
2018-05-18T17:17:50.635Z,32.37
2018-05-18T17:20:17.069Z,29.57
2018-05-18T17:22:43.443Z,43.40
2018-05-18T17:25:09.897Z,28.63
2018-05-18T17:27:36.909Z,26.70
2018-05-18T17:30:04.131Z,32.17
2018-05-18T17:32:30.797Z,34.80
2018-05-18T17:34:57.966Z,25.80
2018-05-18T17:37:24.520Z,24.33
2018-05-18T17:39:51.217Z,24.60
2018-05-18T17:42:18.548Z,25.33
2018-05-18T17:44:44.962Z,26.53
2018-05-18T17:47:11.567Z,28.50
2018-05-18T17:49:37.954Z,23.50
2018-05-18T17:52:04.332Z,29.10
2018-05-18T17:54:30.839Z,24.73
2018-05-18T17:56:57.244Z,27.00
2018-05-18T17:59:23.671Z,31.63
2018-05-18T18:01:50.069Z,34.80
2018-05-18T18:04:16.425Z,35.50
2018-05-18T18:06:42.878Z,31.30
2018-05-18T18:09:09.310Z,32.90
2018-05-18T18:11:35.975Z,22.63
2018-05-18T18:14:03.369Z,22.10
2018-05-18T18:16:29.818Z,27.70
2018-05-18T18:18:56.257Z,29.10
2018-05-18T18:21:22.772Z,27.20
2018-05-18T18:23:49.160Z,32.00
2018-05-18T18:26:15.656Z,28.47
2018-05-18T18:28:42.108Z,33.10
2018-05-18T18:31:08.539Z,27.40
2018-05-18T18:33:34.876Z,27.10
2018-05-18T18:36:01.434Z,26.17
2018-05-18T18:38:27.868Z,40.43
2018-05-18T18:41:01.242Z,28.20
2018-05-18T18:43:27.764Z,27.17
2018-05-18T18:45:54.264Z,27.47
2018-05-18T18:48:20.767Z,31.53
2018-05-18T18:50:47.893Z,29.80
2018-05-18T18:53:14.283Z,30.53
2018-05-18T18:55:40.756Z,24.50
2018-05-18T18:58:07.149Z,27.80
2018-05-18T19:00:34.384Z,35.47
2018-05-18T19:03:01.648Z,28.00
2018-05-18T19:05:28.058Z,25.40
2018-05-18T19:07:54.622Z,29.10
2018-05-18T19:10:21.131Z,29.20
2018-05-18T19:12:47.761Z,29.73
2018-05-18T19:15:14.329Z,32.03
2018-05-18T19:17:40.828Z,36.53
2018-05-18T19:20:07.345Z,26.17
2018-05-18T19:22:33.778Z,26.07
2018-05-18T19:25:00.185Z,30.87
2018-05-18T19:27:26.683Z,27.30
2018-05-18T19:29:54.029Z,26.37
2018-05-18T19:32:20.471Z,27.60
2018-05-18T19:34:46.950Z,30.83
2018-05-18T19:37:13.284Z,27.20
2018-05-18T19:39:39.692Z,34.27
2018-05-18T19:42:06.757Z,25.13
2018-05-18T19:44:33.136Z,24.60
2018-05-18T19:46:59.542Z,28.37
2018-05-18T19:49:25.919Z,26.60
2018-05-18T19:51:52.245Z,29.87
2018-05-18T19:54:18.655Z,23.53
2018-05-18T19:56:45.163Z,27.77
2018-05-18T19:59:11.509Z,31.63
2018-05-18T20:01:37.844Z,21.67
2018-05-18T20:04:04.169Z,27.97
2018-05-18T20:06:30.505Z,33.57
2018-05-18T20:08:56.819Z,33.57
2018-05-18T20:11:23.145Z,30.17
2018-05-18T20:13:49.516Z,31.17
2018-05-18T20:16:15.854Z,43.87
2018-05-18T20:18:42.334Z,30.07
2018-05-18T20:21:08.723Z,27.80
2018-05-18T20:23:35.047Z,30.27
2018-05-18T20:26:02.805Z,32.60
2018-05-18T20:28:29.076Z,25.40
2018-05-18T20:30:56.139Z,34.90
2018-05-18T20:33:22.451Z,38.33
2018-05-18T20:38:47.264Z,31.43
2018-05-18T20:41:14.301Z,30.43
2018-05-18T20:43:40.559Z,31.30
2018-05-18T20:46:06.865Z,27.43
2018-05-18T20:48:33.201Z,31.03
2018-05-18T20:51:00.242Z,29.80
2018-05-18T20:53:26.523Z,30.63
2018-05-18T20:55:52.838Z,31.97
2018-05-18T20:58:19.161Z,38.43
2018-05-18T21:00:45.511Z,30.00
2018-05-18T21:03:11.802Z,33.17
2018-05-18T21:05:38.123Z,30.70
2018-05-18T21:08:04.495Z,26.47
2018-05-18T21:10:30.853Z,28.00
2018-05-18T21:12:57.111Z,31.83
2018-05-18T21:15:23.418Z,32.00
2018-05-18T21:17:49.736Z,32.37
2018-05-18T21:20:16.053Z,29.70
2018-05-18T21:22:42.366Z,31.23
2018-05-18T21:25:09.439Z,29.13
2018-05-18T21:27:35.696Z,33.47
2018-05-18T21:30:01.994Z,33.10
2018-05-18T21:32:28.263Z,31.87
2018-05-18T21:34:54.589Z,31.73
2018-05-18T21:37:20.863Z,26.67
2018-05-18T21:39:47.909Z,34.27
2018-05-18T21:42:14.955Z,30.00
2018-05-18T21:44:42.014Z,27.33
2018-05-18T21:47:09.051Z,32.73
2018-05-18T21:49:36.150Z,33.33
2018-05-18T21:52:02.465Z,29.70
2018-05-18T21:54:28.742Z,31.17
2018-05-18T21:56:55.034Z,31.43
2018-05-18T21:59:21.405Z,28.73
2018-05-18T22:01:48.370Z,27.00
2018-05-18T22:04:15.381Z,31.47
2018-05-18T22:06:41.702Z,30.50
2018-05-18T22:09:07.950Z,25.27
2018-05-18T22:11:34.259Z,27.23
2018-05-18T22:14:00.579Z,44.87
2018-05-18T22:16:26.912Z,28.30
2018-05-18T22:18:53.195Z,32.23
2018-05-18T22:21:20.241Z,29.13
2018-05-18T22:23:47.259Z,33.17
2018-05-18T22:26:13.528Z,32.97
2018-05-18T22:28:40.590Z,35.13
2018-05-18T22:31:06.894Z,37.37
2018-05-18T22:33:33.131Z,31.60
2018-05-18T22:36:00.149Z,39.63
2018-05-18T22:38:26.383Z,24.60
2018-05-18T22:40:52.704Z,38.90
2018-05-18T22:43:19.006Z,25.77
2018-05-18T22:45:45.320Z,24.30
2018-05-18T22:48:12.076Z,28.90
2018-05-18T22:50:38.404Z,35.40
2018-05-18T22:53:04.717Z,34.23
2018-05-18T22:55:31.014Z,25.87
2018-05-18T22:57:57.284Z,26.23
2018-05-18T23:00:25.442Z,31.43
2018-05-18T23:02:52.471Z,33.60
2018-05-18T23:05:18.766Z,25.13
2018-05-18T23:07:45.130Z,34.70
2018-05-18T23:10:11.429Z,29.80
2018-05-18T23:12:37.743Z,25.57
2018-05-18T23:15:04.054Z,28.57
2018-05-18T23:17:30.386Z,35.37
2018-05-18T23:19:56.680Z,35.90
2018-05-18T23:22:23.012Z,34.77
2018-05-18T23:24:49.276Z,30.77
2018-05-18T23:27:16.344Z,30.00
2018-05-18T23:29:42.629Z,28.47
2018-05-18T23:32:08.957Z,37.30
2018-05-18T23:34:35.241Z,34.67
2018-05-18T23:37:01.573Z,29.90
2018-05-18T23:39:27.886Z,31.77
2018-05-18T23:41:54.210Z,34.13
2018-05-18T23:44:20.547Z,33.17
2018-05-18T23:46:46.892Z,26.17
2018-05-18T23:49:13.218Z,29.40
2018-05-18T23:51:39.535Z,31.00
2018-05-18T23:54:05.826Z,26.80
2018-05-18T23:56:32.155Z,27.57
2018-05-18T23:58:58.468Z,38.43
